Atherton, California
Current Conditions -  °F | °C
As of 7:47 PM on Friday 24 Oct 2014 (Local Time) from KPAO Reporting Station
Clear Clear  
Wind Chill: 64°   Ceiling: Unl
Heat Index: 64°   Visibility: 20mi
Dew Point: 55°   Wind: 7mph
Humidity: 73%   Direction: 260°W
Pressure: 29.9"   Gusts: NA
Location:  37.46°N, 122.19°W
Report Text: KPAO 250247Z 26006KT 20SM SKC 18/13 A2990
Loading
Personal Weather Stations






























Interactive Weather Map
Tropical Storm Tracking
New forecast layout! Learn more

10-Day Weather Forecast

Advertisements
Track Severe Weather on mobile